»·PEaware :: N47406 KLAX-KSNA

N47406 :: KLAX-KSNA

FLIGHT INFORMATION

Flight Status: Arrived
Operator: Privately registered:
United States
More flights under this callsign
Pilot: Anonymous 8231 (8231)
Aircraft: PIPER PA-28 CHEROKEE ARCHER
(P28A)
More flights by this aircraft type
Origin: KLAX Los Angeles Intl
United States
Destination: KSNA John Wayne-Orange Co
United States
More flights between these airports :: More routes between these airports
Route: SLI8 SLI
File this flight plan on PilotEdge
Remarks: I-6 rating
Altitude:
(Current/Filed)
4,000ft
Speed:
(Current/Filed)
105kts
Departed: 13-Feb-20 04:28 PM
Arrived: 13-Feb-20 05:13 PM
Distance/Time
Traveled:
31nm/0:45
Distance/Time
To Go:
Arrived

Flight Plot

Page will automatically refresh every two minutes.

Flight plan parsing failed; only flown route is shown


Map Options




Map Legend


Flown Route
Filed Route
Departure Airport
Arrival Airport
Navaid (VOR, NDB)
Fix

Horizontal Profiles

Position Reports

Time Latitude Longitude Heading Altitude Ground
Speed
13-Feb-20 16:11 33.934139 -118.394988 176 105ft 0kts
13-Feb-20 16:12 33.934139 -118.394988 176 105ft 0kts
13-Feb-20 16:13 33.934139 -118.394988 176 105ft 0kts
13-Feb-20 16:14 33.934139 -118.394988 176 105ft 0kts
13-Feb-20 16:15 33.934139 -118.394988 176 105ft 0kts
13-Feb-20 16:16 33.934139 -118.394988 176 105ft 0kts
13-Feb-20 16:17 33.934139 -118.394988 176 105ft 0kts
13-Feb-20 16:18 33.934139 -118.394988 176 105ft 0kts
13-Feb-20 16:19 33.934339 -118.394066 16 103ft 0kts
13-Feb-20 16:20 33.934339 -118.394066 16 103ft 0kts
13-Feb-20 16:21 33.934339 -118.394066 16 103ft 0kts
13-Feb-20 16:22 33.935252 -118.391325 84 102ft 24kts
13-Feb-20 16:23 33.936004 -118.384014 81 97ft 21kts
13-Feb-20 16:24 33.936413 -118.382817 0 95ft 0kts
13-Feb-20 16:25 33.936413 -118.382817 0 95ft 0kts
13-Feb-20 16:26 33.937271 -118.383440 272 95ft 16kts
13-Feb-20 16:27 33.936011 -118.401848 263 667ft 69kts
13-Feb-20 16:28 33.932097 -118.428803 260 1701ft 70kts
13-Feb-20 16:29 33.916468 -118.451196 211 2801ft 75kts
13-Feb-20 16:30 33.893243 -118.467217 215 3818ft 77kts
13-Feb-20 16:31 33.870154 -118.478189 166 4033ft 106kts
13-Feb-20 16:32 33.842041 -118.465964 164 3975ft 107kts
13-Feb-20 16:33 33.814135 -118.453625 163 3906ft 105kts
13-Feb-20 16:34 33.787316 -118.441598 163 3994ft 101kts
13-Feb-20 16:35 33.760634 -118.429668 164 4053ft 102kts
13-Feb-20 16:36 33.743184 -118.401618 105 4091ft 107kts
13-Feb-20 16:37 33.742819 -118.365193 71 4131ft 113kts
13-Feb-20 16:38 33.747461 -118.327325 83 3979ft 116kts
13-Feb-20 16:39 33.752134 -118.289855 82 4018ft 109kts
13-Feb-20 16:40 33.756734 -118.252965 82 4048ft 118kts
13-Feb-20 16:41 33.761859 -118.214403 81 3983ft 115kts
13-Feb-20 16:42 33.766739 -118.176818 82 3952ft 112kts
13-Feb-20 16:43 33.771972 -118.141296 83 3917ft 113kts
13-Feb-20 16:44 33.777011 -118.105943 81 3924ft 113kts
13-Feb-20 16:45 33.782082 -118.072037 83 4414ft 87kts
13-Feb-20 16:46 33.787979 -118.044587 64 5161ft 89kts
13-Feb-20 16:47 33.799087 -118.019544 59 5916ft 92kts
13-Feb-20 16:48 33.810239 -117.988537 66 5970ft 112kts
13-Feb-20 16:49 33.822890 -117.955900 64 5919ft 107kts
13-Feb-20 16:51 33.835852 -117.923584 64 5923ft 105kts
13-Feb-20 16:52 33.848412 -117.892333 65 5983ft 108kts
13-Feb-20 16:53 33.861482 -117.859676 64 6002ft 108kts
13-Feb-20 16:54 33.875098 -117.826687 63 5934ft 111kts
13-Feb-20 16:55 33.888836 -117.793248 64 5852ft 113kts
13-Feb-20 16:56 33.902228 -117.760036 63 5942ft 108kts
13-Feb-20 16:57 33.916038 -117.726950 59 5939ft 110kts
13-Feb-20 16:58 33.935141 -117.700140 24 5230ft 108kts
13-Feb-20 16:59 33.961519 -117.683020 357 4196ft 98kts
13-Feb-20 17:00 33.956754 -117.698912 158 3686ft 102kts
13-Feb-20 17:01 33.933139 -117.703470 210 3490ft 90kts
13-Feb-20 17:02 33.909488 -117.718778 213 3258ft 88kts
13-Feb-20 17:03 33.886549 -117.733341 211 3412ft 95kts
13-Feb-20 17:04 33.862752 -117.747475 204 3421ft 97kts
13-Feb-20 17:05 33.840124 -117.764185 214 3212ft 96kts
13-Feb-20 17:06 33.816137 -117.777631 208 2783ft 94kts
13-Feb-20 17:07 33.793959 -117.793987 210 2426ft 93kts
13-Feb-20 17:08 33.771084 -117.807100 208 2144ft 83kts
13-Feb-20 17:09 33.750351 -117.821417 208 1732ft 88kts
13-Feb-20 17:10 33.729124 -117.834385 211 1089ft 86kts
13-Feb-20 17:10 33.711674 -117.844858 205 843ft 86kts
13-Feb-20 17:12 33.688347 -117.860332 209 271ft 81kts
13-Feb-20 17:13 33.678065 -117.868281 293 59ft 12kts
13-Feb-20 17:13 33.678090 -117.868786 215 59ft 8kts
13-Feb-20 17:15 33.673162 -117.872600 210 59ft 0kts
13-Feb-20 17:15 33.673162 -117.872600 210 59ft 0kts
13-Feb-20 17:16 33.673162 -117.872600 210 59ft 0kts
13-Feb-20 17:17 33.673162 -117.872600 210 59ft 0kts
13-Feb-20 17:18 33.673162 -117.872600 210 59ft 0kts
13-Feb-20 17:19 33.673162 -117.872600 210 59ft 0kts
13-Feb-20 17:20 33.673162 -117.872600 210 59ft 0kts

Navigation Log

Ident Type
Flight plan parsing failed, navigation log unavailable